createdAt,value
2022-08-17T00:00:42.878Z,17.51
2022-08-17T00:03:21.045Z,17.47
2022-08-17T00:05:57.081Z,17.44
2022-08-17T00:08:41.835Z,17.32
2022-08-17T00:11:17.006Z,17.32
2022-08-17T00:13:57.417Z,17.30
2022-08-17T00:16:53.411Z,17.28
2022-08-17T00:19:23.881Z,17.25
2022-08-17T00:22:31.591Z,17.25
2022-08-17T00:24:42.872Z,17.22
2022-08-17T00:27:09.716Z,17.15
2022-08-17T00:29:36.430Z,17.08
2022-08-17T00:33:13.602Z,17.06
2022-08-17T00:34:51.065Z,17.01
2022-08-17T00:37:17.861Z,16.96
2022-08-17T00:39:47.265Z,16.93
2022-08-17T00:42:18.860Z,16.89
2022-08-17T00:44:48.002Z,16.88
2022-08-17T00:47:14.767Z,16.85
2022-08-17T00:49:41.520Z,16.83
2022-08-17T00:52:20.531Z,16.84
2022-08-17T00:54:53.974Z,16.80
2022-08-17T00:57:33.467Z,16.81
2022-08-17T01:00:21.351Z,16.81
2022-08-17T01:02:49.183Z,16.81
2022-08-17T01:05:25.553Z,16.84
2022-08-17T01:07:54.101Z,16.85
2022-08-17T01:10:58.766Z,16.85
2022-08-17T01:13:40.741Z,16.83
2022-08-17T01:16:22.216Z,16.81
2022-08-17T01:19:00.944Z,16.79
2022-08-17T01:21:46.497Z,16.79
2022-08-17T01:24:14.092Z,16.74
2022-08-17T01:26:44.182Z,16.72
2022-08-17T01:29:12.590Z,16.73
2022-08-17T01:31:48.002Z,16.72
2022-08-17T01:34:18.827Z,16.72
2022-08-17T01:36:49.843Z,16.70
2022-08-17T01:39:30.357Z,16.69
2022-08-17T01:42:23.426Z,16.73
2022-08-17T01:45:01.171Z,16.77
2022-08-17T01:47:28.276Z,16.76
2022-08-17T01:49:57.892Z,16.76
2022-08-17T01:52:24.850Z,16.76
2022-08-17T01:54:53.344Z,16.74
2022-08-17T01:57:20.157Z,16.70
2022-08-17T01:59:47.165Z,16.70
2022-08-17T02:02:30.406Z,16.68
2022-08-17T02:05:01.418Z,16.71
2022-08-17T02:07:28.435Z,16.72
2022-08-17T02:09:55.096Z,16.75
2022-08-17T02:12:39.468Z,16.75
2022-08-17T02:15:10.353Z,16.71
2022-08-17T02:17:40.933Z,16.73
2022-08-17T02:20:10.622Z,16.77
2022-08-17T02:22:49.399Z,16.75
2022-08-17T02:25:21.812Z,16.75
2022-08-17T02:27:48.669Z,16.69
2022-08-17T02:30:59.128Z,16.68
2022-08-17T02:33:09.273Z,16.67
2022-08-17T02:35:38.547Z,16.64
2022-08-17T02:38:07.491Z,16.58
2022-08-17T02:40:37.240Z,16.57
2022-08-17T02:43:05.265Z,16.58
2022-08-17T02:45:32.308Z,16.58
2022-08-17T02:47:59.505Z,16.57
2022-08-17T02:50:26.827Z,16.59
2022-08-17T02:53:02.262Z,16.61
2022-08-17T02:55:37.354Z,16.58
2022-08-17T02:58:05.288Z,16.55
2022-08-17T03:00:40.984Z,16.54
2022-08-17T03:03:13.504Z,16.51
2022-08-17T03:05:40.849Z,16.50
2022-08-17T03:08:13.003Z,16.49
2022-08-17T03:10:41.719Z,16.47
2022-08-17T03:13:08.824Z,16.48
2022-08-17T03:15:36.166Z,16.51
2022-08-17T03:18:07.578Z,16.52
2022-08-17T03:20:41.775Z,16.54
2022-08-17T03:23:10.225Z,16.51
2022-08-17T03:25:46.680Z,16.50
2022-08-17T03:28:13.649Z,16.51
2022-08-17T03:30:40.959Z,16.54
2022-08-17T03:33:10.307Z,16.55
2022-08-17T03:35:40.899Z,16.51
2022-08-17T03:38:15.159Z,16.52
2022-08-17T03:40:56.852Z,16.56
2022-08-17T03:43:32.386Z,16.59
2022-08-17T03:46:29.040Z,16.58
2022-08-17T03:49:26.179Z,16.55
2022-08-17T03:52:17.578Z,16.52
2022-08-17T03:55:07.669Z,16.53
2022-08-17T03:57:34.423Z,16.56
2022-08-17T04:00:05.473Z,16.60
2022-08-17T04:02:34.807Z,16.61
2022-08-17T04:05:02.523Z,16.59
2022-08-17T04:07:33.629Z,16.59
2022-08-17T04:10:00.961Z,16.58
2022-08-17T04:12:30.934Z,16.57
2022-08-17T04:14:58.652Z,16.62
2022-08-17T04:17:29.228Z,16.66
2022-08-17T04:19:56.927Z,16.69
2022-08-17T04:22:32.708Z,16.69
2022-08-17T04:25:16.794Z,16.73
2022-08-17T04:27:48.317Z,16.73
2022-08-17T04:30:18.380Z,16.78
2022-08-17T04:33:14.341Z,16.83
2022-08-17T04:35:52.086Z,16.88
2022-08-17T04:38:24.564Z,16.96
2022-08-17T04:41:11.180Z,17.04
2022-08-17T04:43:41.563Z,17.16
2022-08-17T04:46:18.262Z,17.24
2022-08-17T04:48:50.591Z,17.31
2022-08-17T04:51:55.826Z,17.36
2022-08-17T04:54:23.940Z,17.43
2022-08-17T04:56:50.986Z,17.50
2022-08-17T04:59:22.453Z,17.59
2022-08-17T05:01:52.667Z,17.68
2022-08-17T05:04:34.810Z,17.81
2022-08-17T05:07:04.221Z,17.91
2022-08-17T05:09:31.156Z,18.04
2022-08-17T05:12:04.382Z,18.18
2022-08-17T05:14:33.466Z,18.29
2022-08-17T05:17:07.214Z,18.39
2022-08-17T05:19:37.727Z,18.50
2022-08-17T05:22:06.795Z,18.57
2022-08-17T05:24:39.084Z,18.67
2022-08-17T05:27:10.691Z,18.79
2022-08-17T05:29:45.770Z,18.96
2022-08-17T05:32:38.288Z,19.06
2022-08-17T05:35:07.768Z,19.13
2022-08-17T05:37:34.539Z,19.22
2022-08-17T05:40:01.590Z,19.29
2022-08-17T05:42:28.377Z,19.38
2022-08-17T05:44:58.753Z,19.50
2022-08-17T05:47:27.184Z,19.64
2022-08-17T05:49:54.696Z,19.78
2022-08-17T05:53:05.930Z,19.91
2022-08-17T05:56:06.502Z,20.06
2022-08-17T05:59:26.332Z,20.12
2022-08-17T06:02:06.699Z,20.21
2022-08-17T06:05:01.036Z,20.38
2022-08-17T06:07:38.957Z,20.47
2022-08-17T06:10:38.440Z,20.49
2022-08-17T06:13:46.543Z,20.50
2022-08-17T06:16:33.134Z,20.45
2022-08-17T06:19:26.181Z,20.40
2022-08-17T06:21:56.059Z,20.42
2022-08-17T06:24:35.365Z,20.48
2022-08-17T06:27:23.246Z,20.46
2022-08-17T06:30:09.126Z,20.48
2022-08-17T06:32:43.668Z,20.59
2022-08-17T06:35:39.517Z,20.70
2022-08-17T06:39:02.212Z,20.70
2022-08-17T06:43:00.819Z,20.80
2022-08-17T06:45:44.222Z,20.82
2022-08-17T06:48:38.704Z,20.84
2022-08-17T06:51:34.734Z,20.86
2022-08-17T06:54:37.885Z,20.89
2022-08-17T06:57:21.329Z,20.93
2022-08-17T06:59:58.401Z,21.05
2022-08-17T07:02:54.300Z,21.09
2022-08-17T07:05:46.531Z,21.16
2022-08-17T07:08:44.580Z,21.35
2022-08-17T07:11:58.344Z,21.68
2022-08-17T07:14:36.655Z,21.91
2022-08-17T07:17:14.503Z,22.10
2022-08-17T07:19:47.099Z,22.13
2022-08-17T07:22:57.564Z,22.22
2022-08-17T07:25:21.803Z,22.36
2022-08-17T07:27:59.848Z,22.74
2022-08-17T07:30:46.830Z,22.98
2022-08-17T07:33:22.650Z,23.06
2022-08-17T07:35:51.088Z,22.97
2022-08-17T07:38:28.609Z,22.77
2022-08-17T07:41:01.096Z,22.58
2022-08-17T07:43:46.019Z,22.52
2022-08-17T07:46:54.975Z,22.76
2022-08-17T07:49:48.686Z,22.89
2022-08-17T07:52:51.127Z,23.18
2022-08-17T07:55:35.338Z,23.71
2022-08-17T07:58:03.353Z,24.15
2022-08-17T08:00:32.617Z,24.71
2022-08-17T08:03:28.642Z,25.21
2022-08-17T08:06:02.044Z,25.14
2022-08-17T08:08:54.890Z,25.14
2022-08-17T08:11:39.227Z,24.91
2022-08-17T08:14:33.955Z,25.08
2022-08-17T08:17:07.537Z,25.04
2022-08-17T08:19:36.513Z,25.18
2022-08-17T08:22:22.023Z,25.43
2022-08-17T08:25:14.883Z,25.41
2022-08-17T08:28:21.505Z,25.40
2022-08-17T08:31:19.451Z,25.49
2022-08-17T08:35:00.911Z,25.21
2022-08-17T08:37:51.734Z,25.52
2022-08-17T08:41:04.467Z,25.48
2022-08-17T08:44:23.892Z,25.33
2022-08-17T08:47:37.606Z,25.59
2022-08-17T08:50:37.728Z,25.11
2022-08-17T08:53:49.643Z,25.48
2022-08-17T08:56:58.957Z,25.61
2022-08-17T08:59:45.728Z,25.12
2022-08-17T09:02:58.426Z,24.73
2022-08-17T09:06:37.736Z,24.64
2022-08-17T09:10:00.948Z,24.79
2022-08-17T09:12:51.356Z,24.61
2022-08-17T09:15:27.708Z,24.78
2022-08-17T09:19:01.389Z,24.86
2022-08-17T09:21:54.589Z,24.96
2022-08-17T09:24:46.926Z,25.04
2022-08-17T09:27:25.667Z,25.05
2022-08-17T09:30:02.523Z,25.31
2022-08-17T09:32:43.986Z,25.25
2022-08-17T09:35:46.616Z,25.55
2022-08-17T09:39:03.712Z,25.74
2022-08-17T09:42:16.768Z,25.81
2022-08-17T09:45:24.126Z,26.18
2022-08-17T09:48:07.464Z,26.30
2022-08-17T09:51:03.266Z,25.79
2022-08-17T09:53:32.231Z,26.18
2022-08-17T09:56:26.963Z,25.75
2022-08-17T09:59:38.217Z,25.99
2022-08-17T10:02:28.276Z,26.59
2022-08-17T10:05:51.307Z,27.26
2022-08-17T10:08:55.493Z,27.65
2022-08-17T10:12:17.406Z,27.93
2022-08-17T10:15:42.725Z,28.17
2022-08-17T10:18:46.735Z,28.62
2022-08-17T10:21:37.657Z,28.48
2022-08-17T10:24:36.615Z,28.22
2022-08-17T10:27:16.126Z,28.49
2022-08-17T10:29:57.540Z,28.82
2022-08-17T10:32:40.798Z,28.38
2022-08-17T10:35:16.562Z,28.86
2022-08-17T10:38:26.092Z,28.81
2022-08-17T10:41:24.425Z,29.46
2022-08-17T10:44:37.004Z,29.72
2022-08-17T10:47:14.486Z,29.57
2022-08-17T10:49:55.893Z,29.53
2022-08-17T10:52:22.916Z,29.58
2022-08-17T10:54:51.784Z,29.69
2022-08-17T10:57:34.018Z,29.72
2022-08-17T11:00:06.143Z,29.71
2022-08-17T11:02:57.444Z,29.71
2022-08-17T11:06:02.822Z,29.31
2022-08-17T11:08:58.042Z,29.19
2022-08-17T11:12:12.430Z,28.94
2022-08-17T11:15:03.067Z,28.85
2022-08-17T11:18:26.945Z,28.79
2022-08-17T11:21:42.676Z,28.72
2022-08-17T11:24:48.031Z,28.73
2022-08-17T11:27:32.923Z,28.73
2022-08-17T11:30:44.608Z,28.80
2022-08-17T11:33:36.596Z,29.60
2022-08-17T11:36:48.415Z,29.89
2022-08-17T11:39:36.986Z,30.12
2022-08-17T11:42:26.727Z,30.08
2022-08-17T11:45:31.686Z,30.24
2022-08-17T11:49:08.284Z,30.45
2022-08-17T11:52:05.005Z,30.26
2022-08-17T11:54:43.334Z,30.44
2022-08-17T11:57:29.449Z,30.39
2022-08-17T12:00:11.113Z,30.14
2022-08-17T12:02:48.401Z,30.11
2022-08-17T12:05:16.802Z,30.12
2022-08-17T12:08:11.591Z,30.07
2022-08-17T12:11:00.271Z,29.79
2022-08-17T12:13:39.564Z,29.52
2022-08-17T12:16:09.853Z,29.11
2022-08-17T12:18:39.600Z,29.02
2022-08-17T12:21:59.081Z,29.02
2022-08-17T12:25:03.390Z,28.81
2022-08-17T12:28:04.647Z,28.56
2022-08-17T12:30:23.250Z,28.37
2022-08-17T12:32:53.470Z,28.33
2022-08-17T12:35:33.085Z,28.20
2022-08-17T12:38:03.505Z,28.06
2022-08-17T12:40:32.508Z,27.83
2022-08-17T12:43:17.954Z,27.71
2022-08-17T12:45:56.870Z,27.52
2022-08-17T12:48:32.001Z,27.35
2022-08-17T12:51:13.279Z,27.30
2022-08-17T12:53:55.520Z,27.28
2022-08-17T12:56:22.456Z,27.00
2022-08-17T12:58:56.602Z,26.89
2022-08-17T13:01:25.241Z,26.74
2022-08-17T13:03:59.699Z,26.67
2022-08-17T13:06:39.681Z,26.49
2022-08-17T13:09:24.179Z,26.56
2022-08-17T13:12:08.162Z,26.46
2022-08-17T13:14:35.306Z,26.44
2022-08-17T13:17:09.675Z,26.41
2022-08-17T13:19:50.491Z,26.32
2022-08-17T13:22:24.973Z,26.27
2022-08-17T13:25:07.397Z,26.28
2022-08-17T13:27:34.446Z,26.20
2022-08-17T13:30:12.831Z,26.23
2022-08-17T13:32:47.581Z,26.14
2022-08-17T13:35:39.886Z,25.58
2022-08-17T13:38:16.095Z,25.72
2022-08-17T13:40:53.448Z,25.63
2022-08-17T13:43:38.797Z,25.56
2022-08-17T13:46:31.121Z,25.51
2022-08-17T13:49:11.789Z,25.55
2022-08-17T13:51:48.197Z,25.61
2022-08-17T13:54:34.446Z,25.59
2022-08-17T13:57:08.049Z,25.54
2022-08-17T13:59:54.850Z,25.33
2022-08-17T14:02:27.524Z,25.20
2022-08-17T14:04:56.822Z,25.03
2022-08-17T14:07:33.873Z,25.01
2022-08-17T14:10:18.004Z,24.91
2022-08-17T14:12:46.180Z,24.88
2022-08-17T14:15:20.591Z,24.82
2022-08-17T14:17:49.547Z,24.82
2022-08-17T14:20:21.774Z,24.74
2022-08-17T14:22:55.844Z,24.48
2022-08-17T14:25:29.463Z,24.53
2022-08-17T14:27:57.008Z,24.62
2022-08-17T14:30:30.769Z,24.63
2022-08-17T14:32:59.127Z,24.67
2022-08-17T14:35:28.085Z,24.69
2022-08-17T14:37:56.164Z,24.74
2022-08-17T14:40:25.202Z,25.00
2022-08-17T14:42:56.306Z,24.98
2022-08-17T14:45:32.522Z,25.07
2022-08-17T14:48:07.623Z,25.05
2022-08-17T14:50:38.616Z,25.29
2022-08-17T14:53:11.104Z,25.40
2022-08-17T14:55:40.347Z,25.55
2022-08-17T14:58:08.910Z,25.59
2022-08-17T15:00:36.989Z,25.69
2022-08-17T15:03:05.270Z,25.53
2022-08-17T15:05:37.862Z,25.18
2022-08-17T15:08:07.104Z,25.11
2022-08-17T15:10:34.817Z,25.00
2022-08-17T15:13:04.855Z,24.85
2022-08-17T15:15:31.832Z,24.90
2022-08-17T15:17:59.892Z,24.93
2022-08-17T15:20:29.789Z,24.80
2022-08-17T15:22:59.019Z,24.71
2022-08-17T15:25:31.629Z,24.61
2022-08-17T15:28:02.599Z,24.37
2022-08-17T15:30:31.241Z,24.27
2022-08-17T15:33:01.148Z,24.24
2022-08-17T15:35:33.021Z,24.12
2022-08-17T15:38:11.255Z,24.09
2022-08-17T15:40:45.060Z,24.07
2022-08-17T15:43:27.587Z,24.16
2022-08-17T15:46:12.246Z,24.18
2022-08-17T15:48:42.458Z,24.17
2022-08-17T15:51:35.275Z,24.28
2022-08-17T15:54:19.138Z,24.22
2022-08-17T15:56:49.572Z,24.18
2022-08-17T15:59:16.446Z,24.15
2022-08-17T16:03:01.582Z,24.19
2022-08-17T16:04:31.947Z,24.29
2022-08-17T16:07:00.484Z,24.37
2022-08-17T16:09:28.181Z,24.27
2022-08-17T16:11:56.073Z,24.35
2022-08-17T16:14:34.023Z,24.33
2022-08-17T16:17:04.557Z,24.33
2022-08-17T16:19:34.177Z,24.27
2022-08-17T16:22:01.607Z,24.28
2022-08-17T16:24:29.586Z,24.33
2022-08-17T16:26:56.774Z,24.33
2022-08-17T16:29:24.627Z,24.28
2022-08-17T16:31:51.466Z,24.19
2022-08-17T16:34:18.935Z,24.11
2022-08-17T16:36:55.242Z,24.10
2022-08-17T16:39:28.890Z,24.10
2022-08-17T16:41:56.463Z,24.05
2022-08-17T16:44:23.617Z,23.98
2022-08-17T16:46:50.721Z,23.98
2022-08-17T16:49:26.778Z,23.99
2022-08-17T16:52:09.870Z,23.98
2022-08-17T16:54:43.592Z,23.90
2022-08-17T16:57:13.334Z,23.85
2022-08-17T16:59:45.032Z,23.76
2022-08-17T17:02:48.014Z,23.71
2022-08-17T17:05:55.259Z,23.57
2022-08-17T17:08:51.362Z,23.44
2022-08-17T17:11:50.780Z,23.34
2022-08-17T17:14:28.371Z,23.27
2022-08-17T17:17:12.883Z,23.17
2022-08-17T17:20:09.585Z,23.08
2022-08-17T17:23:00.755Z,23.03
2022-08-17T17:25:53.441Z,22.98
2022-08-17T17:28:58.337Z,22.92
2022-08-17T17:31:44.171Z,22.88
2022-08-17T17:34:16.862Z,22.85
2022-08-17T17:36:54.007Z,22.84
2022-08-17T17:39:41.432Z,22.88
2022-08-17T17:42:23.821Z,22.89
2022-08-17T17:45:12.075Z,22.90
2022-08-17T17:47:38.963Z,22.92
2022-08-17T17:50:08.491Z,22.90
2022-08-17T17:53:15.658Z,22.87
2022-08-17T17:56:40.293Z,22.89
2022-08-17T17:59:44.421Z,22.82
2022-08-17T18:02:52.854Z,22.74
2022-08-17T18:06:13.656Z,22.73
2022-08-17T18:09:33.858Z,22.70
2022-08-17T18:12:46.432Z,22.68
2022-08-17T18:15:51.518Z,22.60
2022-08-17T18:18:18.205Z,22.53
2022-08-17T18:20:57.662Z,22.52
2022-08-17T18:23:28.500Z,22.48
2022-08-17T18:25:58.583Z,22.43
2022-08-17T18:28:41.086Z,22.42
2022-08-17T18:31:18.504Z,22.39
2022-08-17T18:33:54.315Z,22.36
2022-08-17T18:36:36.441Z,22.34
2022-08-17T18:39:30.381Z,22.25
2022-08-17T18:42:04.652Z,22.26
2022-08-17T18:44:44.996Z,22.23
2022-08-17T18:47:22.110Z,22.22
2022-08-17T18:50:29.186Z,22.22
2022-08-17T18:53:33.499Z,22.25
2022-08-17T18:56:32.123Z,22.25
2022-08-17T18:59:30.455Z,22.27
2022-08-17T19:02:03.252Z,22.27
2022-08-17T19:04:59.715Z,22.23
2022-08-17T19:07:40.556Z,22.18
2022-08-17T19:10:20.045Z,22.11
2022-08-17T19:13:24.561Z,22.12
2022-08-17T19:16:17.970Z,22.14
2022-08-17T19:19:23.294Z,22.21
2022-08-17T19:21:59.010Z,22.23
2022-08-17T19:24:33.548Z,22.20
2022-08-17T19:27:21.261Z,22.13
2022-08-17T19:30:07.750Z,22.15
2022-08-17T19:32:36.316Z,22.16
2022-08-17T19:35:13.607Z,22.14
2022-08-17T19:38:39.997Z,22.11
2022-08-17T19:41:54.748Z,22.11
2022-08-17T19:45:03.906Z,22.11
2022-08-17T19:47:54.692Z,22.09
2022-08-17T19:50:55.499Z,22.07
2022-08-17T19:54:07.173Z,22.08
2022-08-17T19:57:06.393Z,22.08
2022-08-17T19:59:53.696Z,22.07
2022-08-17T20:02:47.471Z,22.13
2022-08-17T20:05:30.532Z,22.18
2022-08-17T20:08:17.495Z,22.20
2022-08-17T20:11:07.494Z,22.20
2022-08-17T20:13:49.692Z,22.25
2022-08-17T20:16:19.837Z,22.29
2022-08-17T20:19:04.919Z,22.37
2022-08-17T20:21:48.635Z,22.41
2022-08-17T20:24:52.693Z,22.38
2022-08-17T20:27:32.138Z,22.32
2022-08-17T20:29:58.922Z,22.32
2022-08-17T20:33:23.150Z,22.21
2022-08-17T20:36:22.433Z,21.82
2022-08-17T20:38:58.598Z,21.07
2022-08-17T20:41:31.169Z,20.25
2022-08-17T20:43:58.613Z,19.62
2022-08-17T20:46:38.044Z,19.10
2022-08-17T20:49:10.855Z,18.77
2022-08-17T20:52:09.617Z,18.37
2022-08-17T20:54:57.143Z,18.15
2022-08-17T20:57:32.840Z,17.98
2022-08-17T21:00:27.970Z,17.96
2022-08-17T21:03:22.518Z,17.96
2022-08-17T21:06:14.420Z,17.95
2022-08-17T21:09:29.882Z,18.02
2022-08-17T21:12:04.168Z,17.89
2022-08-17T21:15:04.928Z,17.78
2022-08-17T21:18:15.490Z,17.76
2022-08-17T21:20:59.667Z,17.88
2022-08-17T21:23:47.696Z,17.93
2022-08-17T21:26:58.009Z,18.02
2022-08-17T21:29:33.774Z,18.10
2022-08-17T21:32:03.988Z,18.11
2022-08-17T21:35:04.114Z,18.10
2022-08-17T21:37:46.110Z,18.04
2022-08-17T21:40:12.791Z,18.08
2022-08-17T21:42:50.789Z,18.10
2022-08-17T21:45:37.590Z,18.15
2022-08-17T21:48:11.455Z,18.20
2022-08-17T21:50:41.643Z,18.23
2022-08-17T21:53:22.096Z,18.20
2022-08-17T21:55:51.570Z,18.19
2022-08-17T21:58:40.226Z,18.20
2022-08-17T22:01:44.250Z,18.25
2022-08-17T22:04:31.978Z,18.34
2022-08-17T22:07:05.847Z,18.36
2022-08-17T22:09:50.111Z,18.38
2022-08-17T22:12:19.449Z,18.43
2022-08-17T22:15:09.439Z,18.47
2022-08-17T22:17:46.456Z,18.50
2022-08-17T22:20:21.853Z,18.58
2022-08-17T22:23:07.434Z,18.63
2022-08-17T22:25:57.327Z,18.66
2022-08-17T22:28:58.348Z,18.66
2022-08-17T22:31:49.811Z,18.64
2022-08-17T22:34:17.355Z,18.60
2022-08-17T22:36:44.148Z,18.59
2022-08-17T22:39:10.812Z,18.62
2022-08-17T22:42:02.364Z,18.60
2022-08-17T22:44:47.974Z,18.62
2022-08-17T22:47:14.639Z,18.63
2022-08-17T22:49:57.705Z,18.66
2022-08-17T22:53:14.394Z,18.65
2022-08-17T22:56:17.071Z,18.68
2022-08-17T22:59:17.350Z,18.75
2022-08-17T23:02:13.111Z,18.79
2022-08-17T23:05:10.054Z,18.81
2022-08-17T23:07:36.815Z,18.81
2022-08-17T23:10:06.517Z,18.82
2022-08-17T23:12:38.677Z,18.81
2022-08-17T23:15:17.708Z,18.76
2022-08-17T23:17:45.660Z,18.73
2022-08-17T23:20:16.303Z,18.70
2022-08-17T23:22:52.397Z,18.68
2022-08-17T23:25:29.968Z,18.61
2022-08-17T23:28:01.405Z,18.60
2022-08-17T23:30:32.756Z,18.51
2022-08-17T23:33:10.431Z,18.41
2022-08-17T23:35:40.201Z,18.36
2022-08-17T23:38:11.570Z,18.30
2022-08-17T23:40:40.536Z,18.25
2022-08-17T23:43:24.852Z,18.19
2022-08-17T23:46:02.844Z,18.12
2022-08-17T23:48:36.031Z,18.15
2022-08-17T23:51:19.013Z,18.12
2022-08-17T23:53:58.111Z,18.15
2022-08-17T23:56:28.110Z,18.12
2022-08-17T23:59:00.217Z,18.13
